Time;durP1;ratioP1;P1;durP2;ratioP2;P2;SDS_P1;SDS_P2;PMS_P1;PMS_P2;Temp;Humidity;BMP_temperature;BMP_pressure;BME280_temperature;BME280_humidity;BME280_pressure;Samples;Min_cycle;Max_cycle;Signal;HPM_P1;HPM_P2
2022/11/21 00:01:25;;;;;;;3.13;0.60;;;24.30;46.00;;;;;;5069759;28;20192;-74
2022/11/21 00:03:53;;;;;;;3.83;0.63;;;24.60;46.50;;;;;;5074266;28;20277;-79
2022/11/21 00:06:22;;;;;;;5.73;0.93;;;24.70;45.30;;;;;;5076241;28;20204;-74
2022/11/21 00:08:50;;;;;;;1.83;0.87;;;24.70;44.70;;;;;;5091272;28;20188;-76
2022/11/21 00:11:18;;;;;;;3.13;0.80;;;25.00;44.50;;;;;;5075119;28;20267;-75
2022/11/21 00:13:46;;;;;;;3.20;0.60;;;25.10;45.40;;;;;;5073924;28;20836;-73
2022/11/21 00:16:15;;;;;;;2.73;0.77;;;25.30;45.20;;;;;;5073958;28;20185;-73
2022/11/21 00:18:43;;;;;;;5.00;0.80;;;25.20;41.90;;;;;;5074870;28;20534;-73
2022/11/21 00:21:16;;;;;;;7.27;0.80;;;24.90;42.80;;;;;;5076982;28;20509;-73
2022/11/21 00:23:44;;;;;;;2.87;0.70;;;25.10;44.10;;;;;;5079271;28;20314;-72
2022/11/21 00:26:14;;;;;;;2.73;0.80;;;25.10;43.60;;;;;;5075535;28;20207;-76
2022/11/21 00:28:42;;;;;;;3.87;0.70;;;25.00;42.80;;;;;;5073448;28;20180;-74
2022/11/21 00:31:20;;;;;;;7.20;0.80;;;25.80;44.10;;;;;;5073598;28;20179;-74
2022/11/21 00:33:48;;;;;;;3.07;0.77;;;25.40;42.00;;;;;;5072984;28;20248;-74
2022/11/21 00:36:16;;;;;;;4.67;0.80;;;25.70;42.70;;;;;;5078886;28;20780;-72
2022/11/21 00:38:44;;;;;;;12.93;1.10;;;25.50;42.40;;;;;;5067844;28;20316;-73
2022/11/21 00:41:12;;;;;;;4.57;0.87;;;25.40;40.80;;;;;;5073007;28;20187;-75
2022/11/21 00:43:39;;;;;;;1.47;0.50;;;25.00;40.40;;;;;;5069217;28;20211;-73
2022/11/21 00:46:07;;;;;;;3.60;0.80;;;25.70;41.40;;;;;;5073181;28;20187;-74
2022/11/21 00:48:35;;;;;;;1.80;0.57;;;25.20;39.60;;;;;;5073234;28;20268;-75
2022/11/21 00:51:03;;;;;;;4.30;1.00;;;25.50;41.00;;;;;;5073114;28;20183;-73
2022/11/21 00:53:31;;;;;;;5.80;1.00;;;25.60;41.90;;;;;;5072918;28;20183;-72
2022/11/21 00:55:59;;;;;;;4.47;0.83;;;25.90;42.10;;;;;;5072792;28;20172;-74
2022/11/21 00:58:27;;;;;;;5.60;0.80;;;25.90;42.40;;;;;;5072750;28;20212;-74
2022/11/21 01:01:13;;;;;;;1.93;0.73;;;25.20;40.30;;;;;;5072776;28;20241;-76
2022/11/21 01:03:41;;;;;;;4.50;0.70;;;24.50;39.30;;;;;;5071971;28;20231;-75
2022/11/21 01:06:11;;;;;;;2.20;0.60;;;24.40;40.20;;;;;;5067032;28;20179;-73
2022/11/21 01:08:42;;;;;;;2.40;0.80;;;24.60;40.60;;;;;;5083746;28;20187;-74
2022/11/21 01:11:12;;;;;;;3.70;0.70;;;24.70;40.80;;;;;;5072406;28;20246;-74
2022/11/21 01:13:41;;;;;;;5.20;0.60;;;25.10;42.70;;;;;;5072630;28;20267;-74
2022/11/21 01:16:18;;;;;;;1.03;0.50;;;25.20;42.70;;;;;;5067718;28;20187;-76
2022/11/21 01:18:46;;;;;;;6.00;1.30;;;25.50;40.70;;;;;;5061428;28;20621;-74
2022/11/21 01:21:17;;;;;;;7.47;0.70;;;25.50;41.10;;;;;;5068295;28;20309;-77
2022/11/21 01:23:46;;;;;;;2.23;0.60;;;25.40;41.90;;;;;;5071036;28;20223;-77
2022/11/21 01:26:16;;;;;;;4.33;1.00;;;25.60;43.20;;;;;;5065266;28;20175;-75
2022/11/21 01:28:44;;;;;;;6.20;0.60;;;25.50;42.10;;;;;;5072310;28;20816;-74
2022/11/21 01:31:14;;;;;;;2.33;0.60;;;25.10;40.80;;;;;;5072283;28;20203;-75
2022/11/21 01:33:42;;;;;;;2.30;0.50;;;25.60;41.40;;;;;;5071939;28;20174;-74
2022/11/21 01:36:22;;;;;;;4.27;0.50;;;25.80;40.10;;;;;;5049503;28;20211;-73
2022/11/21 01:38:52;;;;;;;7.20;1.40;;;25.30;40.10;;;;;;5057384;28;20187;-72
2022/11/21 01:41:32;;;;;;;6.33;0.83;;;25.40;39.90;;;;;;5054316;28;20182;-73
2022/11/21 01:44:01;;;;;;;2.70;0.70;;;24.60;39.00;;;;;;5051934;28;20214;-72
2022/11/21 01:46:29;;;;;;;18.07;1.03;;;24.20;40.50;;;;;;5065997;28;20545;-74
2022/11/21 01:49:12;;;;;;;5.87;0.90;;;24.10;42.30;;;;;;5071998;28;20179;-74
2022/11/21 01:51:50;;;;;;;2.87;0.87;;;23.80;42.40;;;;;;5071751;28;20179;-75
2022/11/21 01:54:37;;;;;;;8.40;0.63;;;23.90;42.70;;;;;;5071151;28;20301;-73
2022/11/21 01:57:34;;;;;;;7.27;0.80;;;24.20;44.20;;;;;;5071564;28;20554;-72
2022/11/21 02:00:20;;;;;;;2.50;0.43;;;24.20;42.70;;;;;;5070217;28;20195;-72
2022/11/21 02:02:57;;;;;;;10.00;0.77;;;23.50;42.70;;;;;;5070421;28;20225;-70
2022/11/21 02:05:28;;;;;;;4.17;1.07;;;23.70;43.40;;;;;;5071738;28;20717;-71
2022/11/21 02:08:01;;;;;;;4.80;0.60;;;23.90;42.60;;;;;;5071318;28;20544;-74
2022/11/21 02:10:29;;;;;;;1.40;0.50;;;24.20;44.20;;;;;;5072444;28;20179;-71
2022/11/21 02:12:58;;;;;;;2.97;0.60;;;24.50;44.90;;;;;;5071594;28;20278;-72
2022/11/21 02:15:29;;;;;;;6.33;0.67;;;24.10;41.70;;;;;;5076495;28;20184;-74
2022/11/21 02:17:57;;;;;;;10.30;1.10;;;23.70;41.80;;;;;;5076893;28;20622;-71
2022/11/21 02:20:27;;;;;;;2.43;0.60;;;24.00;43.30;;;;;;5073237;28;20187;-72
2022/11/21 02:23:22;;;;;;;5.93;0.50;;;23.80;42.20;;;;;;5071832;28;20200;-73
2022/11/21 02:25:50;;;;;;;6.97;0.50;;;23.60;41.00;;;;;;5071654;28;20191;-72
2022/11/21 02:28:22;;;;;;;1.73;0.87;;;24.10;42.20;;;;;;5069043;28;20667;-73
2022/11/21 02:30:50;;;;;;;0.60;0.40;;;24.60;43.60;;;;;;5071671;28;20313;-71
2022/11/21 02:33:18;;;;;;;3.00;1.00;;;24.90;42.40;;;;;;5070156;28;20195;-72
2022/11/21 02:35:54;;;;;;;1.67;0.50;;;24.20;40.90;;;;;;5055724;28;20181;-72
2022/11/21 02:38:36;;;;;;;3.77;0.70;;;24.10;39.60;;;;;;5070368;28;20188;-74
2022/11/21 02:41:27;;;;;;;4.43;0.70;;;24.10;37.40;;;;;;5060376;28;20183;-75
2022/11/21 02:44:30;;;;;;;11.67;0.97;;;23.80;36.40;;;;;;5051658;28;20212;-73
2022/11/21 02:46:58;;;;;;;5.90;0.70;;;23.80;36.20;;;;;;5041225;28;20192;-73
2022/11/21 02:49:44;;;;;;;4.50;0.90;;;23.80;36.70;;;;;;5065799;28;20535;-73
2022/11/21 02:52:12;;;;;;;4.03;0.70;;;24.30;37.30;;;;;;5087215;28;20184;-73
2022/11/21 02:54:40;;;;;;;2.70;0.70;;;24.30;36.60;;;;;;5071346;28;20187;-73
2022/11/21 02:57:08;;;;;;;4.70;1.00;;;24.00;37.00;;;;;;5071604;28;20667;-72
2022/11/21 02:59:35;;;;;;;4.83;0.70;;;23.80;37.40;;;;;;5086668;28;20545;-73
2022/11/21 03:02:03;;;;;;;4.10;0.80;;;24.30;39.40;;;;;;5063919;28;20188;-72
2022/11/21 03:04:31;;;;;;;3.57;0.60;;;24.60;37.60;;;;;;5070013;28;20235;-72
2022/11/21 03:06:59;;;;;;;5.40;0.70;;;24.10;36.90;;;;;;5091061;28;20183;-73
2022/11/21 03:09:26;;;;;;;1.97;0.63;;;24.40;39.10;;;;;;5074913;28;20278;-72
2022/11/21 03:11:54;;;;;;;3.13;0.70;;;24.10;37.10;;;;;;5074859;28;20195;-73
2022/11/21 03:14:22;;;;;;;5.20;0.87;;;24.10;36.80;;;;;;5076915;28;20634;-73
2022/11/21 03:16:51;;;;;;;5.30;1.00;;;24.60;37.30;;;;;;5077777;28;20230;-71
2022/11/21 03:19:19;;;;;;;0.77;0.50;;;24.40;37.10;;;;;;5077699;28;20237;-72
2022/11/21 03:21:47;;;;;;;5.37;0.80;;;24.00;37.60;;;;;;5075055;28;20188;-72
2022/11/21 03:24:14;;;;;;;2.63;0.60;;;24.10;40.90;;;;;;5074721;28;20237;-71
2022/11/21 03:26:42;;;;;;;2.50;0.80;;;23.80;41.60;;;;;;5074534;28;20215;-73
2022/11/21 03:29:10;;;;;;;1.67;0.73;;;24.10;42.50;;;;;;5074364;28;20175;-72
2022/11/21 03:31:38;;;;;;;2.63;0.80;;;23.90;41.50;;;;;;5074219;28;20219;-68
2022/11/21 03:34:06;;;;;;;13.33;1.17;;;23.50;42.00;;;;;;5074134;28;20220;-72
2022/11/21 03:36:34;;;;;;;2.27;0.70;;;23.70;43.50;;;;;;5074377;28;20179;-73
2022/11/21 03:39:02;;;;;;;6.47;0.80;;;23.80;43.60;;;;;;5073833;28;20180;-71
2022/11/21 03:41:30;;;;;;;3.67;0.63;;;23.30;44.30;;;;;;5074007;28;20184;-71
2022/11/21 03:44:02;;;;;;;5.40;0.80;;;22.60;44.70;;;;;;5067466;28;20220;-72
2022/11/21 03:46:31;;;;;;;10.27;1.20;;;22.70;44.70;;;;;;5064414;28;20748;-73
2022/11/21 03:48:59;;;;;;;2.30;0.60;;;22.60;43.70;;;;;;5074190;28;20192;-71
2022/11/21 03:51:27;;;;;;;6.40;0.73;;;22.50;43.80;;;;;;5074412;28;20210;-71
2022/11/21 03:53:55;;;;;;;6.07;0.87;;;22.40;45.20;;;;;;5074506;28;20180;-72
2022/11/21 03:56:24;;;;;;;4.57;0.80;;;22.60;44.20;;;;;;5073958;28;20187;-71
2022/11/21 03:58:52;;;;;;;4.23;0.70;;;22.60;43.00;;;;;;5074303;28;20183;-72
2022/11/21 04:01:20;;;;;;;5.90;1.27;;;22.90;43.30;;;;;;5074088;28;20176;-74
2022/11/21 04:03:48;;;;;;;4.00;0.90;;;23.20;42.60;;;;;;5074240;28;20303;-73
2022/11/21 04:06:18;;;;;;;2.90;0.93;;;23.10;42.10;;;;;;5073900;28;20241;-73
2022/11/21 04:08:46;;;;;;;3.73;0.97;;;23.30;41.60;;;;;;5074052;28;20186;-73
2022/11/21 04:11:14;;;;;;;2.07;0.70;;;22.90;39.40;;;;;;5073966;28;20175;-71
2022/11/21 04:13:42;;;;;;;1.57;0.60;;;22.80;41.10;;;;;;5074014;28;20901;-73
2022/11/21 04:16:10;;;;;;;1.10;0.50;;;23.20;43.70;;;;;;5073436;28;20259;-75
2022/11/21 04:18:38;;;;;;;1.67;0.50;;;23.20;40.60;;;;;;5073738;28;20172;-71
2022/11/21 04:21:07;;;;;;;2.17;0.37;;;23.20;40.60;;;;;;5068928;28;20205;-73
2022/11/21 04:23:35;;;;;;;1.70;0.50;;;22.90;40.70;;;;;;5054073;28;20219;-73
2022/11/21 04:26:03;;;;;;;2.83;0.70;;;23.20;41.40;;;;;;5060053;28;20216;-72
2022/11/21 04:28:31;;;;;;;6.70;0.70;;;23.00;38.50;;;;;;5074790;28;20176;-74
2022/11/21 04:31:09;;;;;;;3.97;0.70;;;23.10;38.50;;;;;;5067029;28;20642;-72
2022/11/21 04:33:37;;;;;;;2.87;1.10;;;23.20;36.90;;;;;;5054670;28;20200;-73
2022/11/21 04:36:05;;;;;;;3.43;0.80;;;23.20;37.80;;;;;;5061053;28;20219;-73
2022/11/21 04:38:33;;;;;;;3.57;0.93;;;23.20;36.50;;;;;;5090583;28;20524;-72
2022/11/21 04:41:01;;;;;;;2.37;0.70;;;23.10;36.70;;;;;;5074708;28;20222;-73
2022/11/21 04:43:28;;;;;;;7.97;0.80;;;23.00;36.70;;;;;;5074650;28;20282;-73
2022/11/21 04:45:56;;;;;;;4.00;0.60;;;23.20;37.30;;;;;;5063762;28;20650;-70
2022/11/21 04:48:24;;;;;;;4.00;0.83;;;22.30;37.60;;;;;;5055865;28;20256;-71
2022/11/21 04:50:52;;;;;;;5.57;0.80;;;22.00;39.30;;;;;;5063580;28;20653;-67
2022/11/21 04:53:20;;;;;;;4.33;0.70;;;22.00;39.70;;;;;;5073766;28;20269;-67
2022/11/21 04:55:47;;;;;;;1.00;0.50;;;21.80;40.60;;;;;;5074621;28;20174;-67
2022/11/21 04:58:15;;;;;;;1.27;0.80;;;21.70;35.40;;;;;;5074231;28;20263;-67
2022/11/21 05:00:43;;;;;;;3.57;0.80;;;22.00;36.60;;;;;;5074243;28;20593;-68
2022/11/21 05:03:11;;;;;;;6.23;0.70;;;22.40;37.60;;;;;;5074096;28;20211;-69
2022/11/21 05:05:38;;;;;;;2.20;0.50;;;22.30;36.40;;;;;;5074337;28;20554;-70
2022/11/21 05:08:06;;;;;;;2.20;0.77;;;21.70;39.10;;;;;;5073963;28;20183;-70
2022/11/21 05:13:19;;;;;;;3.37;0.60;;;21.70;39.10;;;;;;5073957;28;20225;-68
2022/11/21 05:13:21;;;;;;;3.03;0.73;;;21.70;37.60;;;;;;5073411;28;20293;-70
2022/11/21 05:15:55;;;;;;;2.13;1.20;;;22.00;37.60;;;;;;5073960;28;20182;-68
2022/11/21 05:18:23;;;;;;;2.93;0.80;;;22.00;35.20;;;;;;5074129;28;20206;-68
2022/11/21 05:20:51;;;;;;;3.07;0.87;;;22.00;35.90;;;;;;5073779;28;20176;-67
2022/11/21 05:23:18;;;;;;;2.57;0.90;;;21.90;36.00;;;;;;5073612;28;20215;-68
2022/11/21 05:25:46;;;;;;;3.17;0.80;;;22.00;37.10;;;;;;5073894;28;20194;-67
2022/11/21 05:28:14;;;;;;;1.90;0.60;;;22.10;37.40;;;;;;5072922;28;20278;-68
2022/11/21 05:30:42;;;;;;;1.90;0.90;;;22.10;37.40;;;;;;5073756;28;20168;-67
2022/11/21 05:33:09;;;;;;;2.87;0.93;;;22.20;35.90;;;;;;5073958;28;20187;-67
2022/11/21 05:35:37;;;;;;;3.10;1.00;;;22.30;34.60;;;;;;5073498;28;20184;-68
2022/11/21 05:38:05;;;;;;;5.43;1.17;;;22.10;34.00;;;;;;5073334;28;20180;-67
2022/11/21 05:40:32;;;;;;;3.57;0.80;;;22.00;32.80;;;;;;5073518;28;20234;-67
2022/11/21 05:45:48;;;;;;;4.10;0.90;;;22.40;33.70;;;;;;5073639;28;20245;-67
2022/11/21 05:48:16;;;;;;;7.17;1.30;;;22.10;33.30;;;;;;5088682;28;20183;-68
2022/11/21 05:50:48;;;;;;;2.50;0.80;;;22.10;34.10;;;;;;5073263;28;20168;-68
2022/11/21 05:53:16;;;;;;;3.70;1.00;;;22.30;31.40;;;;;;5073860;28;20505;-68
2022/11/21 05:55:45;;;;;;;3.13;0.80;;;22.40;30.30;;;;;;5073359;28;20202;-68
2022/11/21 05:58:13;;;;;;;3.90;0.80;;;22.10;31.00;;;;;;5088626;28;20322;-68
2022/11/21 06:00:41;;;;;;;6.80;1.23;;;22.40;29.90;;;;;;5073197;28;20172;-68
2022/11/21 06:06:04;;;;;;;3.10;0.80;;;22.60;29.60;;;;;;5073470;28;20557;-67
2022/11/21 06:08:36;;;;;;;5.80;1.00;;;22.20;29.30;;;;;;5073297;28;20282;-67
2022/11/21 06:11:05;;;;;;;3.40;0.90;;;22.20;29.70;;;;;;5073275;28;20179;-67
2022/11/21 06:13:34;;;;;;;3.23;1.00;;;22.20;30.00;;;;;;5073148;28;20172;-68
2022/11/21 06:16:04;;;;;;;5.10;0.90;;;22.10;29.40;;;;;;5073190;28;20233;-67
2022/11/21 06:18:38;;;;;;;5.30;1.07;;;22.10;29.90;;;;;;5073265;28;20168;-68
2022/11/21 06:21:08;;;;;;;3.67;0.90;;;22.30;29.90;;;;;;5073017;28;20175;-67
2022/11/21 06:23:36;;;;;;;4.23;0.80;;;22.10;29.90;;;;;;5072930;28;20225;-68
2022/11/21 06:26:06;;;;;;;3.10;0.60;;;22.00;29.40;;;;;;5072912;28;20178;-68
2022/11/21 06:28:36;;;;;;;3.50;1.00;;;21.60;30.10;;;;;;5088587;28;20182;-68
2022/11/21 06:31:09;;;;;;;3.03;0.70;;;21.60;30.50;;;;;;5073072;28;20577;-67
2022/11/21 06:33:38;;;;;;;3.60;0.70;;;21.30;29.80;;;;;;5072844;28;20176;-67
2022/11/21 06:36:07;;;;;;;2.47;0.97;;;21.30;29.10;;;;;;5072838;28;20536;-67
2022/11/21 06:38:35;;;;;;;3.33;1.00;;;21.20;28.30;;;;;;5073154;28;20168;-68
2022/11/21 06:41:20;;;;;;;4.67;0.87;;;21.00;28.40;;;;;;5075596;28;20164;-68
2022/11/21 06:43:48;;;;;;;3.47;0.90;;;21.00;29.20;;;;;;5076557;28;20679;-68
2022/11/21 06:46:16;;;;;;;3.43;0.80;;;21.00;29.70;;;;;;5076897;28;20173;-68
2022/11/21 06:48:44;;;;;;;4.87;0.97;;;20.90;30.00;;;;;;5076583;28;20647;-68
2022/11/21 06:51:18;;;;;;;3.90;0.97;;;21.20;30.10;;;;;;5077209;28;20186;-68
2022/11/21 06:53:47;;;;;;;3.73;0.93;;;21.00;30.60;;;;;;5076712;28;20649;-68
2022/11/21 06:56:15;;;;;;;3.47;0.80;;;20.80;30.00;;;;;;5076650;28;20179;-68
2022/11/21 06:58:43;;;;;;;5.10;1.03;;;20.70;30.60;;;;;;5076476;28;20269;-68
2022/11/21 07:01:12;;;;;;;5.13;0.83;;;20.50;30.10;;;;;;5076571;28;20200;-68
2022/11/21 07:03:40;;;;;;;1.30;0.77;;;20.60;31.30;;;;;;5075977;28;20312;-68
2022/11/21 07:06:07;;;;;;;5.73;0.90;;;20.50;31.90;;;;;;5076461;28;20172;-68
2022/11/21 07:08:36;;;;;;;3.17;0.87;;;20.60;31.90;;;;;;5076528;28;20241;-68
2022/11/21 07:11:07;;;;;;;4.50;1.10;;;20.60;31.60;;;;;;5076096;28;20966;-69
2022/11/21 07:13:34;;;;;;;2.23;0.90;;;20.60;31.50;;;;;;5076349;28;20172;-67
2022/11/21 07:16:08;;;;;;;2.93;0.90;;;20.50;31.50;;;;;;5076804;28;20563;-68
2022/11/21 07:18:36;;;;;;;3.33;0.80;;;20.50;31.80;;;;;;5076022;28;20546;-68
2022/11/21 07:21:06;;;;;;;3.33;0.83;;;20.50;32.00;;;;;;5076123;28;20176;-68
2022/11/21 07:23:34;;;;;;;3.03;0.70;;;20.30;32.70;;;;;;5075791;28;20305;-67
2022/11/21 07:26:04;;;;;;;2.70;0.83;;;20.00;32.80;;;;;;5075830;28;20230;-67
2022/11/21 07:28:33;;;;;;;3.37;0.80;;;20.00;33.60;;;;;;5076128;28;20176;-68
2022/11/21 07:31:02;;;;;;;4.97;0.80;;;20.30;34.20;;;;;;5075854;28;20675;-67
2022/11/21 07:33:31;;;;;;;4.90;0.90;;;20.40;33.40;;;;;;5091491;28;20548;-68
2022/11/21 07:35:59;;;;;;;1.40;0.53;;;20.20;32.70;;;;;;5074319;28;20188;-68
2022/11/21 07:38:27;;;;;;;3.83;1.13;;;20.20;31.50;;;;;;5075641;28;20177;-69
2022/11/21 07:40:57;;;;;;;4.17;0.83;;;20.00;31.70;;;;;;5075635;28;20177;-68
2022/11/21 07:43:24;;;;;;;3.20;0.93;;;20.30;32.30;;;;;;5075625;28;20701;-69
2022/11/21 07:45:52;;;;;;;3.60;0.97;;;20.30;31.50;;;;;;5091187;28;20177;-68
2022/11/21 07:48:20;;;;;;;3.57;1.00;;;20.10;30.30;;;;;;5075594;28;20177;-67
2022/11/21 07:50:48;;;;;;;4.93;1.00;;;20.10;30.00;;;;;;5075247;28;20251;-68
2022/11/21 07:53:16;;;;;;;2.07;0.80;;;20.10;29.70;;;;;;5074690;28;20184;-67
2022/11/21 07:55:43;;;;;;;3.73;1.23;;;20.00;29.80;;;;;;5074296;28;20179;-74
2022/11/21 07:58:14;;;;;;;5.63;0.87;;;20.00;29.70;;;;;;5069679;28;20677;-74
2022/11/21 08:00:42;;;;;;;3.87;0.97;;;19.80;28.90;;;;;;5072566;28;20180;-77
2022/11/21 08:03:12;;;;;;;1.63;0.77;;;19.60;29.70;;;;;;5073909;28;20216;-75
2022/11/21 08:05:41;;;;;;;1.40;0.63;;;19.50;29.40;;;;;;5073558;28;20204;-74
2022/11/21 08:08:11;;;;;;;2.13;0.90;;;19.40;29.70;;;;;;5054056;28;20187;-78
2022/11/21 08:10:44;;;;;;;4.00;0.90;;;19.50;30.30;;;;;;5054562;28;20630;-77
2022/11/21 08:13:12;;;;;;;4.83;1.23;;;19.30;31.30;;;;;;5074043;28;20176;-76
2022/11/21 08:15:40;;;;;;;3.40;0.97;;;19.00;31.70;;;;;;5089254;28;20275;-72
2022/11/21 08:18:12;;;;;;;1.93;0.83;;;18.80;32.60;;;;;;5079031;28;20234;-76
2022/11/21 08:20:40;;;;;;;3.37;1.10;;;18.60;32.80;;;;;;5051747;28;20205;-76
2022/11/21 08:23:09;;;;;;;4.97;0.87;;;18.40;33.70;;;;;;5051785;28;20220;-70
2022/11/21 08:25:42;;;;;;;3.70;0.90;;;18.20;33.80;;;;;;5053347;28;20221;-69
2022/11/21 08:28:11;;;;;;;0.60;0.60;;;18.20;34.70;;;;;;5052050;28;20612;-71
2022/11/21 08:30:39;;;;;;;3.90;0.80;;;17.90;35.60;;;;;;5054364;28;20194;-76
2022/11/21 08:33:08;;;;;;;2.17;0.80;;;17.80;36.40;;;;;;5072581;28;20245;-72
2022/11/21 08:35:41;;;;;;;7.43;0.90;;;17.70;36.80;;;;;;5072344;28;20203;-75
2022/11/21 08:38:09;;;;;;;2.23;0.70;;;17.70;37.00;;;;;;5072232;28;20176;-72
2022/11/21 08:40:37;;;;;;;4.73;0.70;;;17.50;37.80;;;;;;5077658;28;20205;-71
2022/11/21 08:43:09;;;;;;;11.17;1.13;;;17.40;37.70;;;;;;5091433;28;20220;-75
2022/11/21 08:45:40;;;;;;;2.30;0.70;;;17.30;37.20;;;;;;5073688;28;20186;-76
2022/11/21 08:48:12;;;;;;;3.10;0.70;;;17.30;38.20;;;;;;5073206;28;20542;-72
2022/11/21 08:50:39;;;;;;;2.57;0.93;;;17.30;37.40;;;;;;5072689;28;20175;-74
2022/11/21 08:53:07;;;;;;;2.03;0.87;;;17.30;37.40;;;;;;5072950;28;20649;-72
2022/11/21 08:55:35;;;;;;;1.87;0.60;;;17.20;37.10;;;;;;5073272;28;20175;-76
2022/11/21 08:58:03;;;;;;;3.70;0.80;;;17.20;37.00;;;;;;5074279;28;20637;-74
2022/11/21 09:00:31;;;;;;;3.60;0.90;;;17.10;36.90;;;;;;5076718;28;20180;-75
2022/11/21 09:03:03;;;;;;;2.87;0.90;;;17.10;36.90;;;;;;5074525;28;20213;-74
2022/11/21 09:05:31;;;;;;;3.03;0.63;;;17.00;37.40;;;;;;5061428;28;20220;-76
2022/11/21 09:07:59;;;;;;;2.47;0.87;;;16.90;38.20;;;;;;5068034;28;20328;-73
2022/11/21 09:10:30;;;;;;;2.83;0.90;;;16.90;38.20;;;;;;5072757;28;20175;-73
2022/11/21 09:12:59;;;;;;;4.00;1.20;;;16.80;38.50;;;;;;5072618;28;20179;-73
2022/11/21 09:18:13;;;;;;;6.60;1.10;;;16.70;38.40;;;;;;5070728;28;20212;-72
2022/11/21 09:20:43;;;;;;;4.40;1.57;;;16.70;38.50;;;;;;5065854;28;20669;-72
2022/11/21 09:23:16;;;;;;;3.10;0.87;;;16.70;39.00;;;;;;5072454;28;20583;-72
2022/11/21 09:25:44;;;;;;;1.10;0.60;;;16.50;39.20;;;;;;5073740;28;20701;-75
2022/11/21 09:28:13;;;;;;;4.03;0.90;;;16.40;39.40;;;;;;5074065;28;20188;-76
2022/11/21 09:30:42;;;;;;;1.27;0.60;;;16.40;40.30;;;;;;5073845;28;20183;-75
2022/11/21 09:33:17;;;;;;;3.53;1.03;;;16.30;39.80;;;;;;5073147;28;20175;-76
2022/11/21 09:35:45;;;;;;;6.20;0.93;;;16.30;40.50;;;;;;5073789;28;20199;-76
2022/11/21 09:38:13;;;;;;;1.63;0.70;;;16.30;40.80;;;;;;5072823;28;20183;-75
2022/11/21 09:40:46;;;;;;;3.93;0.73;;;16.30;40.40;;;;;;5073705;28;20173;-73
2022/11/21 09:43:22;;;;;;;4.30;0.80;;;16.30;40.80;;;;;;5093087;28;20202;-74
2022/11/21 09:45:57;;;;;;;1.53;0.63;;;16.20;41.50;;;;;;5085827;28;20204;-76
2022/11/21 09:48:48;;;;;;;4.47;0.80;;;16.20;41.90;;;;;;5073085;28;20660;-75
2022/11/21 09:51:18;;;;;;;5.87;0.90;;;16.10;42.40;;;;;;5071452;28;20616;-76
2022/11/21 09:54:01;;;;;;;4.10;0.90;;;16.10;42.60;;;;;;5072709;28;20552;-77
2022/11/21 09:59:52;;;;;;;1.37;0.80;;;16.10;42.90;;;;;;5071141;28;20194;-75
2022/11/21 10:02:22;;;;;;;2.57;0.90;;;16.00;43.30;;;;;;5087671;28;20284;-76
2022/11/21 10:04:52;;;;;;;1.13;0.57;;;16.00;43.50;;;;;;5072050;28;20261;-75
2022/11/21 10:07:28;;;;;;;1.80;0.70;;;15.90;44.10;;;;;;5072051;28;20181;-76
2022/11/21 10:10:31;;;;;;;2.23;0.80;;;15.80;44.20;;;;;;5072238;28;20703;-75
2022/11/21 10:13:23;;;;;;;4.57;0.90;;;15.80;45.30;;;;;;5072071;28;20267;-76
2022/11/21 10:16:19;;;;;;;1.50;0.67;;;15.80;46.00;;;;;;5071654;28;20178;-76
2022/11/21 10:19:08;;;;;;;1.83;0.90;;;15.80;46.30;;;;;;5072155;28;20395;-75
2022/11/21 10:21:48;;;;;;;3.90;0.80;;;15.70;46.50;;;;;;5059389;28;20590;-73
2022/11/21 10:24:33;;;;;;;3.70;0.73;;;15.70;47.50;;;;;;5050741;28;20217;-75
2022/11/21 10:27:07;;;;;;;2.63;0.83;;;15.60;48.30;;;;;;5058918;28;20679;-74
2022/11/21 10:29:57;;;;;;;4.70;1.50;;;15.50;49.10;;;;;;5071622;28;20830;-76
2022/11/21 10:32:30;;;;;;;3.67;1.00;;;15.50;49.60;;;;;;5071870;28;20774;-75
2022/11/21 10:35:12;;;;;;;3.13;0.63;;;15.60;49.60;;;;;;5071756;28;20180;-74
2022/11/21 10:37:44;;;;;;;3.47;0.80;;;15.60;49.50;;;;;;5071678;28;20648;-73
2022/11/21 10:40:27;;;;;;;4.40;0.73;;;15.60;50.00;;;;;;5071839;28;20667;-73
2022/11/21 10:46:09;;;;;;;2.90;0.80;;;15.50;51.10;;;;;;5041079;28;20239;-74
2022/11/21 10:48:36;;;;;;;4.70;0.80;;;15.60;51.00;;;;;;5060206;28;20723;-74
2022/11/21 10:51:13;;;;;;;2.17;1.03;;;15.60;51.90;;;;;;5052608;28;20664;-75
2022/11/21 10:56:28;;;;;;;2.50;0.90;;;15.40;52.90;;;;;;5072473;28;20274;-74
2022/11/21 10:59:00;;;;;;;1.77;0.70;;;15.50;53.10;;;;;;5072792;28;20186;-74
2022/11/21 11:01:29;;;;;;;5.30;0.90;;;15.50;53.70;;;;;;5072814;28;20257;-74
2022/11/21 11:04:20;;;;;;;7.27;1.13;;;15.50;53.80;;;;;;5072401;28;20399;-73
2022/11/21 11:06:48;;;;;;;6.17;1.07;;;15.60;54.40;;;;;;5069621;28;20238;-75
2022/11/21 11:09:45;;;;;;;5.00;1.13;;;15.50;54.80;;;;;;5072722;28;20233;-75
2022/11/21 11:15:25;;;;;;;2.80;0.87;;;15.50;56.80;;;;;;5071258;28;20201;-74
2022/11/21 11:18:00;;;;;;;3.23;1.00;;;15.40;57.70;;;;;;5072718;28;20305;-75
2022/11/21 11:20:34;;;;;;;2.17;0.80;;;15.40;58.00;;;;;;5072644;28;20179;-73
2022/11/21 11:23:17;;;;;;;3.40;1.03;;;15.50;57.50;;;;;;5072363;28;20209;-74
2022/11/21 11:25:53;;;;;;;3.97;0.93;;;15.50;59.60;;;;;;5072036;28;20177;-71
2022/11/21 11:28:23;;;;;;;1.80;0.70;;;15.40;63.60;;;;;;5075476;28;20235;-74
2022/11/21 11:30:55;;;;;;;1.37;0.80;;;15.30;69.60;;;;;;5076331;28;20261;-72
2022/11/21 11:33:48;;;;;;;1.93;1.07;;;15.20;73.20;;;;;;5076250;28;20185;-75
2022/11/21 11:36:27;;;;;;;1.47;0.73;;;15.10;76.70;;;;;;5075732;28;20240;-73
2022/11/21 11:38:58;;;;;;;2.40;0.70;;;14.90;84.60;;;;;;5076375;28;20170;-73
2022/11/21 11:48:11;;;;;;;1.27;0.53;;;14.60;99.90;;;;;;5035947;28;20189;-75
2022/11/21 11:50:43;;;;;;;3.50;0.70;;;14.50;99.90;;;;;;5035843;28;20179;-75
2022/11/21 11:53:11;;;;;;;2.40;0.70;;;14.40;99.90;;;;;;5060085;28;20317;-72
2022/11/21 11:56:10;;;;;;;5.50;0.77;;;14.30;99.90;;;;;;5075435;28;20280;-73
2022/11/21 11:58:49;;;;;;;7.00;0.77;;;14.20;99.90;;;;;;5075565;28;20175;-73
2022/11/21 12:01:43;;;;;;;12.37;0.90;;;14.20;99.90;;;;;;5076124;28;20174;-74
2022/11/21 12:04:23;;;;;;;17.43;1.20;;;14.30;99.90;;;;;;5065309;28;20226;-72
2022/11/21 12:07:42;;;;;;;7.90;1.07;;;14.20;99.90;;;;;;5075315;28;20182;-70
2022/11/21 12:10:29;;;;;;;7.30;1.00;;;14.10;99.90;;;;;;5053488;28;20588;-73
2022/11/21 12:13:18;;;;;;;1.83;0.60;;;13.90;99.90;;;;;;5053476;28;20201;-73
2022/11/21 12:15:54;;;;;;;1.13;0.90;;;13.70;99.90;;;;;;5072079;28;20243;-71
2022/11/21 12:18:47;;;;;;;15.13;1.57;;;13.60;99.90;;;;;;5075064;28;20227;-71
2022/11/21 12:21:19;;;;;;;2.20;0.50;;;13.50;99.90;;;;;;5075387;28;20221;-72
2022/11/21 12:23:49;;;;;;;1.50;0.67;;;13.40;99.90;;;;;;5075086;28;20589;-72
2022/11/21 12:26:45;;;;;;;1.10;0.63;;;13.30;99.90;;;;;;5061450;28;20227;-71
2022/11/21 12:29:19;;;;;;;0.83;0.50;;;13.30;99.90;;;;;;5081768;28;20184;-73
2022/11/21 12:31:54;;;;;;;3.67;0.70;;;13.20;99.90;;;;;;5075203;28;20176;-73
2022/11/21 12:34:46;;;;;;;1.13;0.50;;;13.20;99.90;;;;;;5074713;28;20172;-73
2022/11/21 12:37:20;;;;;;;1.20;0.60;;;13.20;99.90;;;;;;5089892;28;20200;-73
2022/11/21 12:40:05;;;;;;;0.90;0.60;;;13.20;99.90;;;;;;5074703;28;20178;-71
2022/11/21 12:43:23;;;;;;;3.23;1.00;;;13.10;99.90;;;;;;5074679;28;20618;-73
2022/11/21 12:46:20;;;;;;;1.33;0.70;;;13.10;99.90;;;;;;5051277;28;20187;-74
2022/11/21 12:54:29;;;;;;;1.33;0.60;;;13.10;99.90;;;;;;5074394;28;20655;-71
2022/11/21 12:55:40;;;;;;;5.80;0.70;;;13.20;99.90;;;;;;5074597;28;20220;-71
2022/11/21 12:58:13;;;;;;;1.20;0.60;;;13.40;99.90;;;;;;5034775;28;20186;-73
2022/11/21 13:00:50;;;;;;;1.13;0.70;;;13.50;99.90;;;;;;5034500;28;20177;-74
2022/11/21 13:03:39;;;;;;;2.40;0.80;;;13.50;99.90;;;;;;5049515;28;20222;-73
2022/11/21 13:06:18;;;;;;;2.40;0.63;;;13.60;99.90;;;;;;5045571;28;20193;-73
2022/11/21 13:08:48;;;;;;;4.47;0.67;;;13.60;99.90;;;;;;5074204;28;20185;-73
2022/11/21 13:12:06;;;;;;;1.37;0.60;;;13.60;99.90;;;;;;5074359;28;20178;-73
2022/11/21 13:14:43;;;;;;;0.90;0.60;;;13.60;99.90;;;;;;5073093;28;20663;-71
2022/11/21 13:17:20;;;;;;;3.70;0.90;;;13.60;99.90;;;;;;5073699;28;20184;-73
2022/11/21 13:20:27;;;;;;;1.80;0.60;;;13.50;99.90;;;;;;5065143;28;20265;-73
2022/11/21 13:23:05;;;;;;;1.50;0.80;;;13.50;99.90;;;;;;5039908;28;20677;-70
2022/11/21 13:25:38;;;;;;;3.50;0.80;;;13.40;99.90;;;;;;5035228;28;20172;-74
2022/11/21 13:28:17;;;;;;;5.23;0.80;;;13.30;99.90;;;;;;5071472;28;20184;-73
2022/11/21 13:30:53;;;;;;;1.27;0.73;;;13.20;99.90;;;;;;5073789;28;20682;-76
2022/11/21 13:33:38;;;;;;;1.93;0.90;;;13.10;99.90;;;;;;5074052;28;20179;-74
2022/11/21 13:36:07;;;;;;;1.10;0.60;;;13.10;99.90;;;;;;5073859;28;20176;-75
2022/11/21 13:38:53;;;;;;;1.30;0.60;;;13.00;99.90;;;;;;5073738;28;20202;-75
2022/11/21 13:44:40;;;;;;;3.23;0.70;;;12.90;99.90;;;;;;5073828;28;20258;-70
2022/11/21 13:47:26;;;;;;;1.27;0.80;;;12.80;99.90;;;;;;5073332;28;20191;-74
2022/11/21 13:50:15;;;;;;;1.27;0.70;;;12.70;99.90;;;;;;5073490;28;20235;-74